createdAt,value
2019-02-11T01:08:19.116Z,4.17
2019-02-11T01:10:49.235Z,4.40
2019-02-11T01:13:27.183Z,4.60
2019-02-11T01:16:06.978Z,4.97
2019-02-11T01:18:37.421Z,5.17
2019-02-11T01:21:08.800Z,4.33
2019-02-11T01:23:39.771Z,3.97
2019-02-11T01:26:09.936Z,4.17
2019-02-11T01:28:40.018Z,3.73
2019-02-11T01:31:10.060Z,3.93
2019-02-11T01:33:41.127Z,4.13
2019-02-11T01:36:14.592Z,4.03
2019-02-11T01:38:45.100Z,4.50
2019-02-11T01:41:16.890Z,4.83
2019-02-11T01:43:57.861Z,3.43
2019-02-11T01:46:28.145Z,3.57
2019-02-11T01:48:59.122Z,2.80
2019-02-11T01:51:29.292Z,3.17
2019-02-11T01:54:01.611Z,2.30
2019-02-11T01:56:32.080Z,3.23
2019-02-11T01:59:04.501Z,2.47
2019-02-11T02:01:39.248Z,2.83
2019-02-11T02:04:18.307Z,3.30
2019-02-11T02:06:48.901Z,2.83
2019-02-11T02:09:19.747Z,2.93
2019-02-11T02:11:49.743Z,2.20
2019-02-11T02:14:20.717Z,2.03
2019-02-11T02:16:51.295Z,2.30
2019-02-11T02:19:23.237Z,1.93
2019-02-11T02:21:53.435Z,2.60
2019-02-11T02:24:26.222Z,1.33
2019-02-11T02:26:56.474Z,1.47
2019-02-11T02:29:26.485Z,1.60
2019-02-11T02:31:56.463Z,1.37
2019-02-11T02:34:26.748Z,1.37
2019-02-11T02:36:57.379Z,2.07
2019-02-11T02:39:39.692Z,1.10
2019-02-11T02:42:10.147Z,1.17
2019-02-11T02:44:40.243Z,1.30
2019-02-11T02:47:11.816Z,1.43
2019-02-11T02:49:41.909Z,1.20
2019-02-11T02:52:15.125Z,1.23
2019-02-11T02:54:45.694Z,1.20
2019-02-11T02:57:16.188Z,1.40
2019-02-11T02:59:46.161Z,1.70
2019-02-11T03:02:16.844Z,1.20
2019-02-11T03:04:47.142Z,1.50
2019-02-11T03:07:41.069Z,1.87
2019-02-11T03:10:17.062Z,2.50
2019-02-11T03:12:47.296Z,2.23
2019-02-11T03:15:17.851Z,3.03
2019-02-11T03:17:48.072Z,2.10
2019-02-11T03:20:18.806Z,2.43
2019-02-11T03:22:49.949Z,3.03
2019-02-11T03:25:20.640Z,2.73
2019-02-11T03:27:50.756Z,3.13
2019-02-11T03:30:21.913Z,2.63
2019-02-11T03:32:52.615Z,4.03
2019-02-11T03:35:22.830Z,3.93
2019-02-11T03:37:52.985Z,3.67
2019-02-11T03:40:24.449Z,3.37
2019-02-11T03:42:55.413Z,2.50
2019-02-11T03:45:25.865Z,2.50
2019-02-11T03:47:55.954Z,3.47
2019-02-11T03:50:28.748Z,3.30
2019-02-11T03:52:59.036Z,3.27
2019-02-11T03:55:33.596Z,3.33
2019-02-11T03:58:03.877Z,2.97
2019-02-11T04:00:34.162Z,2.77
2019-02-11T04:03:04.984Z,2.90
2019-02-11T04:05:35.259Z,2.83
2019-02-11T04:08:05.639Z,3.00
2019-02-11T04:10:37.186Z,2.67
2019-02-11T04:13:08.238Z,2.90
2019-02-11T04:15:39.190Z,3.10
2019-02-11T04:18:10.875Z,2.97
2019-02-11T04:20:41.471Z,3.33
2019-02-11T04:23:16.567Z,3.07
2019-02-11T04:25:57.129Z,3.30
2019-02-11T04:28:28.992Z,2.53
2019-02-11T04:31:01.558Z,2.60
2019-02-11T04:33:31.919Z,2.57
2019-02-11T04:36:10.944Z,2.87
2019-02-11T04:38:41.387Z,3.17
2019-02-11T04:41:18.935Z,2.50
2019-02-11T04:43:50.166Z,2.93
2019-02-11T04:46:20.640Z,2.83
2019-02-11T04:48:50.769Z,3.00
2019-02-11T04:51:20.785Z,3.40
2019-02-11T04:53:52.323Z,2.90
2019-02-11T04:56:25.681Z,3.20
2019-02-11T04:59:00.060Z,3.30
2019-02-11T05:01:30.481Z,3.13
2019-02-11T05:04:01.080Z,2.80
2019-02-11T05:06:31.036Z,2.63
2019-02-11T05:09:01.009Z,3.17
2019-02-11T05:11:34.065Z,2.43
2019-02-11T05:14:19.791Z,2.50
2019-02-11T05:16:52.986Z,2.53
2019-02-11T05:19:37.321Z,2.43
2019-02-11T05:22:28.389Z,3.07
2019-02-11T05:24:59.727Z,2.83
2019-02-11T05:27:32.890Z,2.77
2019-02-11T05:30:03.881Z,2.70
2019-02-11T05:32:36.241Z,2.40
2019-02-11T05:35:38.340Z,2.73
2019-02-11T05:38:09.366Z,2.40
2019-02-11T05:40:44.631Z,2.73
2019-02-11T05:43:15.009Z,2.30
2019-02-11T05:45:45.294Z,2.30
2019-02-11T05:48:15.598Z,3.43
2019-02-11T05:50:45.617Z,3.50
2019-02-11T05:53:15.759Z,3.10
2019-02-11T05:55:47.506Z,3.03
2019-02-11T05:58:17.402Z,3.23
2019-02-11T06:00:51.076Z,3.40
2019-02-11T06:03:21.880Z,2.83
2019-02-11T06:05:57.147Z,2.93
2019-02-11T06:08:29.370Z,2.60
2019-02-11T06:10:59.944Z,2.97
2019-02-11T06:13:33.110Z,4.53
2019-02-11T06:16:12.824Z,4.33
2019-02-11T06:18:42.813Z,4.30
2019-02-11T06:21:15.191Z,4.77
2019-02-11T06:23:45.603Z,5.97
2019-02-11T06:26:18.200Z,4.73
2019-02-11T06:28:48.144Z,4.97
2019-02-11T06:31:18.720Z,5.20
2019-02-11T06:33:51.026Z,4.10
2019-02-11T06:36:22.663Z,4.60
2019-02-11T06:38:53.261Z,5.57
2019-02-11T06:41:26.819Z,4.67
2019-02-11T06:43:56.725Z,6.63
2019-02-11T06:46:30.262Z,6.00
2019-02-11T06:49:01.392Z,4.93
2019-02-11T06:51:35.094Z,5.57
2019-02-11T06:54:09.816Z,6.67
2019-02-11T06:56:40.180Z,6.27
2019-02-11T06:59:10.620Z,6.60
2019-02-11T07:02:00.187Z,7.33
2019-02-11T07:04:30.742Z,7.40
2019-02-11T07:07:02.355Z,7.70
2019-02-11T07:09:33.191Z,8.27
2019-02-11T07:12:03.299Z,8.30
2019-02-11T07:14:33.365Z,7.50
2019-02-11T07:17:04.237Z,7.17
2019-02-11T07:19:41.539Z,7.80
2019-02-11T07:22:42.046Z,7.33
2019-02-11T07:25:18.902Z,6.20
2019-02-11T07:27:54.806Z,6.67
2019-02-11T07:30:26.386Z,5.50
2019-02-11T07:33:17.702Z,5.83
2019-02-11T07:36:30.804Z,4.93
2019-02-11T07:39:40.796Z,4.93
2019-02-11T07:43:08.444Z,5.93
2019-02-11T07:46:04.278Z,5.73
2019-02-11T07:48:34.696Z,6.53
2019-02-11T07:55:39.267Z,6.07
2019-02-11T08:01:56.647Z,6.27
2019-02-11T08:04:33.047Z,5.63
2019-02-11T08:07:49.036Z,6.30
2019-02-11T08:14:09.981Z,5.30
2019-02-11T08:16:47.465Z,5.67
2019-02-11T08:20:13.386Z,6.10
2019-02-11T08:26:35.827Z,5.67
2019-02-11T08:29:16.183Z,5.47
2019-02-11T08:32:24.315Z,5.93
2019-02-11T08:35:06.211Z,6.00
2019-02-11T08:37:58.964Z,6.20
2019-02-11T08:40:55.474Z,6.70
2019-02-11T08:43:26.886Z,5.93
2019-02-11T08:46:06.040Z,5.83
2019-02-11T08:49:49.493Z,5.33
2019-02-11T08:51:19.330Z,4.70
2019-02-11T09:00:57.672Z,4.60
2019-02-11T09:10:42.939Z,7.33
2019-02-11T09:13:13.343Z,5.93
2019-02-11T09:15:55.240Z,6.70
2019-02-11T09:18:16.385Z,5.57
2019-02-11T09:20:46.380Z,5.13
2019-02-11T09:23:17.195Z,6.03
2019-02-11T09:25:48.760Z,5.83
2019-02-11T09:28:18.640Z,4.93
2019-02-11T09:30:48.633Z,5.07
2019-02-11T09:33:21.730Z,5.17
2019-02-11T09:35:53.211Z,4.57
2019-02-11T09:38:24.425Z,6.00
2019-02-11T09:41:17.405Z,4.07
2019-02-11T09:43:47.431Z,4.47
2019-02-11T09:46:17.259Z,4.67
2019-02-11T09:48:48.075Z,3.77
2019-02-11T09:51:21.038Z,4.77
2019-02-11T09:53:51.715Z,4.37
2019-02-11T09:56:22.585Z,4.80
2019-02-11T09:58:52.809Z,4.43
2019-02-11T10:01:22.874Z,4.00
2019-02-11T10:03:53.257Z,5.43
2019-02-11T10:06:41.110Z,5.20
2019-02-11T10:09:10.960Z,4.97
2019-02-11T10:11:40.856Z,5.20
2019-02-11T10:14:12.184Z,4.87
2019-02-11T10:16:42.437Z,5.33
2019-02-11T10:19:13.131Z,6.07
2019-02-11T10:21:44.363Z,5.27
2019-02-11T10:24:14.747Z,6.23
2019-02-11T10:26:44.603Z,6.20
2019-02-11T10:29:18.206Z,5.30
2019-02-11T10:31:50.395Z,7.90
2019-02-11T10:34:20.790Z,8.97
2019-02-11T10:37:02.312Z,7.40
2019-02-11T10:39:32.739Z,9.83
2019-02-11T10:42:05.211Z,8.10
2019-02-11T10:44:35.143Z,6.23
2019-02-11T10:47:05.986Z,8.67
2019-02-11T10:49:36.236Z,7.50
2019-02-11T10:52:06.790Z,10.67
2019-02-11T10:54:36.768Z,5.20
2019-02-11T10:57:09.176Z,8.23
2019-02-11T10:59:40.404Z,9.27
2019-02-11T11:02:13.664Z,7.30
2019-02-11T11:04:47.971Z,5.77
2019-02-11T11:07:21.139Z,6.40
2019-02-11T11:09:51.464Z,6.03
2019-02-11T11:12:22.263Z,6.97
2019-02-11T11:14:53.607Z,5.93
2019-02-11T11:17:24.993Z,6.23
2019-02-11T11:19:55.862Z,5.90
2019-02-11T11:22:26.329Z,4.77
2019-02-11T11:24:58.136Z,3.73
2019-02-11T11:27:36.221Z,3.47
2019-02-11T11:30:08.247Z,5.07
2019-02-11T11:32:38.390Z,4.60
2019-02-11T11:35:30.930Z,3.80
2019-02-11T11:38:04.105Z,4.60
2019-02-11T11:40:34.584Z,31.43
2019-02-11T11:43:08.485Z,41.90
2019-02-11T11:45:39.665Z,23.67
2019-02-11T11:48:09.625Z,43.37
2019-02-11T11:50:39.710Z,17.57
2019-02-11T11:53:10.496Z,17.57
2019-02-11T11:55:43.383Z,27.50
2019-02-11T11:58:27.120Z,9.97
2019-02-11T12:01:01.327Z,20.73
2019-02-11T12:03:31.349Z,5.73
2019-02-11T12:06:02.651Z,3.73
2019-02-11T12:08:52.576Z,2.40
2019-02-11T12:11:24.268Z,4.37
2019-02-11T12:13:54.470Z,2.93
2019-02-11T12:16:55.951Z,2.77
2019-02-11T12:19:13.338Z,4.13
2019-02-11T12:21:49.601Z,4.97
2019-02-11T12:24:19.611Z,5.70
2019-02-11T12:26:49.674Z,3.67
2019-02-11T12:29:21.379Z,4.17
2019-02-11T12:31:54.597Z,6.47
2019-02-11T12:34:32.406Z,7.10
